createdAt,value
2023-05-06T00:00:19.506Z,25.00
2023-05-06T00:01:19.506Z,25.00
2023-05-06T00:02:19.539Z,25.00
2023-05-06T00:03:19.692Z,0.00
2023-05-06T00:04:19.609Z,0.00
2023-05-06T00:05:19.566Z,0.00
2023-05-06T00:06:19.600Z,0.00
2023-05-06T00:07:19.597Z,0.00
2023-05-06T00:08:19.625Z,12.79
2023-05-06T00:09:19.657Z,25.00
2023-05-06T00:10:19.672Z,25.00
2023-05-06T00:11:19.704Z,25.00
2023-05-06T00:12:19.728Z,25.00
2023-05-06T00:13:20.035Z,25.00
2023-05-06T00:14:19.780Z,25.03
2023-05-06T00:15:19.853Z,25.00
2023-05-06T00:16:19.860Z,27.62
2023-05-06T00:17:19.871Z,25.64
2023-05-06T00:18:19.907Z,25.00
2023-05-06T00:19:19.943Z,25.72
2023-05-06T00:20:19.982Z,25.07
2023-05-06T00:21:20.002Z,27.08
2023-05-06T00:22:20.033Z,25.00
2023-05-06T00:23:20.057Z,25.30
2023-05-06T00:24:20.102Z,27.32
2023-05-06T00:25:20.141Z,25.00
2023-05-06T00:26:20.157Z,25.65
2023-05-06T00:27:20.183Z,25.60
2023-05-06T00:28:20.217Z,25.12
2023-05-06T00:29:20.270Z,25.05
2023-05-06T00:30:20.277Z,25.00
2023-05-06T00:31:20.344Z,25.00
2023-05-06T00:32:20.345Z,25.85
2023-05-06T00:33:20.390Z,25.29
2023-05-06T00:34:20.411Z,25.00
2023-05-06T00:35:20.443Z,25.50
2023-05-06T00:36:20.474Z,26.39
2023-05-06T00:37:20.529Z,27.34
2023-05-06T00:38:20.534Z,25.65
2023-05-06T00:39:20.566Z,26.53
2023-05-06T00:40:20.600Z,26.07
2023-05-06T00:41:20.639Z,26.81
2023-05-06T00:42:20.676Z,25.40
2023-05-06T00:43:20.708Z,26.21
2023-05-06T00:44:20.738Z,27.07
2023-05-06T00:45:20.880Z,26.72
2023-05-06T00:46:20.929Z,27.03
2023-05-06T00:47:20.846Z,26.23
2023-05-06T00:48:20.888Z,26.98
2023-05-06T00:49:20.927Z,26.95
2023-05-06T00:50:20.967Z,27.10
2023-05-06T00:51:21.005Z,25.52
2023-05-06T00:52:21.040Z,27.25
2023-05-06T00:53:21.072Z,25.22
2023-05-06T00:54:21.112Z,25.81
2023-05-06T00:55:21.165Z,26.54
2023-05-06T00:56:21.195Z,26.59
2023-05-06T00:57:21.228Z,28.65
2023-05-06T00:58:21.269Z,28.43
2023-05-06T00:59:21.298Z,25.75
2023-05-06T01:00:21.333Z,26.23
2023-05-06T01:01:21.679Z,29.09
2023-05-06T01:02:21.466Z,28.36
2023-05-06T01:03:21.523Z,27.58
2023-05-06T01:04:21.510Z,25.83
2023-05-06T01:05:21.641Z,27.30
2023-05-06T01:06:21.567Z,25.08
2023-05-06T01:07:21.594Z,27.85
2023-05-06T01:08:21.642Z,27.41
2023-05-06T01:09:21.681Z,27.58
2023-05-06T01:10:21.725Z,27.26
2023-05-06T01:11:21.751Z,26.01
2023-05-06T01:12:21.796Z,26.19
2023-05-06T01:13:21.912Z,27.77
2023-05-06T01:14:21.878Z,26.38
2023-05-06T01:15:21.920Z,26.12
2023-05-06T01:16:21.965Z,26.67
2023-05-06T01:17:22.143Z,26.83
2023-05-06T01:18:22.042Z,26.76
2023-05-06T01:19:22.076Z,29.14
2023-05-06T01:20:22.128Z,28.87
2023-05-06T01:21:22.160Z,26.49
2023-05-06T01:22:22.190Z,25.83
2023-05-06T01:23:22.231Z,25.22
2023-05-06T01:24:22.288Z,28.42
2023-05-06T01:25:22.335Z,26.65
2023-05-06T01:26:22.385Z,28.08
2023-05-06T01:27:22.416Z,26.67
2023-05-06T01:28:22.452Z,28.32
2023-05-06T01:29:22.489Z,27.23
2023-05-06T01:30:22.545Z,26.57
2023-05-06T01:31:22.649Z,26.73
2023-05-06T01:32:22.704Z,26.25
2023-05-06T01:33:22.710Z,27.58
2023-05-06T01:34:22.725Z,26.81
2023-05-06T01:35:22.773Z,25.10
2023-05-06T01:36:22.836Z,28.23
2023-05-06T01:37:22.866Z,27.02
2023-05-06T01:38:22.933Z,25.12
2023-05-06T01:39:22.971Z,25.02
2023-05-06T01:40:23.018Z,26.32
2023-05-06T01:41:23.059Z,25.64
2023-05-06T01:42:23.135Z,26.33
2023-05-06T01:43:23.158Z,27.77
2023-05-06T01:44:23.203Z,26.80
2023-05-06T01:45:23.271Z,28.12
2023-05-06T01:46:23.305Z,25.87
2023-05-06T01:47:23.343Z,27.91
2023-05-06T01:48:23.385Z,27.26
2023-05-06T01:49:23.528Z,25.54
2023-05-06T01:50:23.515Z,29.55
2023-05-06T01:51:23.552Z,27.25
2023-05-06T01:52:23.581Z,27.21
2023-05-06T01:53:23.644Z,27.41
2023-05-06T01:54:23.681Z,26.42
2023-05-06T01:55:23.728Z,26.27
2023-05-06T01:56:23.782Z,29.75
2023-05-06T01:57:23.826Z,26.97
2023-05-06T01:58:23.883Z,27.86
2023-05-06T01:59:23.927Z,28.96
2023-05-06T02:00:23.975Z,26.39
2023-05-06T02:01:24.091Z,28.39
2023-05-06T02:02:24.117Z,28.39
2023-05-06T02:03:24.238Z,29.41
2023-05-06T02:04:24.185Z,28.53
2023-05-06T02:05:24.337Z,29.17
2023-05-06T02:06:24.265Z,28.56
2023-05-06T02:07:24.317Z,29.94
2023-05-06T02:08:24.382Z,31.56
2023-05-06T02:09:24.411Z,29.88
2023-05-06T02:10:24.449Z,31.19
2023-05-06T02:11:24.520Z,27.85
2023-05-06T02:12:24.576Z,29.01
2023-05-06T02:13:24.607Z,30.50
2023-05-06T02:14:24.647Z,29.48
2023-05-06T02:15:24.706Z,30.72
2023-05-06T02:16:24.763Z,27.55
2023-05-06T02:17:24.831Z,29.59
2023-05-06T02:18:25.708Z,29.79
2023-05-06T02:19:24.927Z,29.62
2023-05-06T02:20:24.970Z,29.39
2023-05-06T02:21:25.048Z,31.27
2023-05-06T02:22:25.088Z,30.10
2023-05-06T02:23:25.133Z,29.18
2023-05-06T02:24:25.186Z,30.94
2023-05-06T02:25:25.235Z,31.30
2023-05-06T02:26:25.303Z,30.61
2023-05-06T02:27:25.342Z,31.52
2023-05-06T02:28:25.406Z,30.30
2023-05-06T02:29:25.448Z,29.54
2023-05-06T02:30:25.523Z,31.01
2023-05-06T02:31:25.610Z,30.93
2023-05-06T02:32:25.664Z,29.94
2023-05-06T02:33:25.660Z,30.57
2023-05-06T02:34:25.718Z,31.25
2023-05-06T02:35:25.775Z,28.11
2023-05-06T02:36:25.836Z,30.13
2023-05-06T02:37:25.901Z,31.04
2023-05-06T02:38:25.943Z,30.70
2023-05-06T02:39:26.002Z,33.26
2023-05-06T02:40:26.051Z,31.10
2023-05-06T02:41:26.984Z,31.29
2023-05-06T02:42:26.214Z,29.10
2023-05-06T02:43:26.224Z,31.68
2023-05-06T02:44:26.270Z,30.52
2023-05-06T02:45:26.336Z,29.14
2023-05-06T02:46:26.459Z,29.91
2023-05-06T02:47:26.463Z,33.01
2023-05-06T02:48:26.499Z,28.55
2023-05-06T02:49:26.556Z,31.50
2023-05-06T02:50:26.607Z,30.28
2023-05-06T02:51:26.660Z,31.89
2023-05-06T02:52:26.716Z,32.70
2023-05-06T02:53:26.798Z,29.81
2023-05-06T02:54:26.831Z,30.68
2023-05-06T02:55:26.896Z,31.23
2023-05-06T02:56:26.948Z,32.06
2023-05-06T02:57:27.004Z,33.79
2023-05-06T02:58:27.052Z,31.78
2023-05-06T02:59:27.107Z,34.36
2023-05-06T03:00:27.175Z,33.23
2023-05-06T03:01:27.269Z,33.33
2023-05-06T03:02:27.334Z,34.48
2023-05-06T03:03:27.340Z,32.33
2023-05-06T03:04:27.415Z,32.38
2023-05-06T03:05:27.453Z,31.56
2023-05-06T03:06:27.506Z,32.84
2023-05-06T03:07:27.577Z,31.21
2023-05-06T03:08:27.635Z,32.54
2023-05-06T03:09:28.022Z,31.65
2023-05-06T03:10:27.761Z,30.66
2023-05-06T03:11:27.810Z,30.49
2023-05-06T03:12:27.866Z,35.10
2023-05-06T03:13:27.925Z,31.82
2023-05-06T03:14:27.990Z,32.86
2023-05-06T03:15:28.029Z,29.72
2023-05-06T03:16:28.146Z,30.25
2023-05-06T03:17:28.224Z,34.29
2023-05-06T03:18:28.205Z,33.64
2023-05-06T03:19:28.255Z,31.34
2023-05-06T03:20:28.316Z,32.73
2023-05-06T03:21:28.394Z,32.47
2023-05-06T03:22:28.431Z,32.96
2023-05-06T03:23:28.484Z,33.87
2023-05-06T03:24:28.537Z,35.09
2023-05-06T03:25:28.692Z,33.24
2023-05-06T03:26:28.632Z,32.52
2023-05-06T03:27:28.693Z,32.51
2023-05-06T03:28:28.744Z,33.08
2023-05-06T03:29:28.794Z,29.66
2023-05-06T03:30:28.840Z,32.23
2023-05-06T03:31:28.940Z,32.46
2023-05-06T03:32:28.957Z,33.00
2023-05-06T03:33:29.007Z,33.07
2023-05-06T03:34:29.058Z,31.00
2023-05-06T03:35:29.106Z,34.19
2023-05-06T03:36:29.116Z,32.05
2023-05-06T03:37:29.151Z,31.71
2023-05-06T03:38:29.215Z,34.99
2023-05-06T03:39:29.262Z,35.41
2023-05-06T03:40:29.303Z,33.37
2023-05-06T03:41:29.488Z,33.80
2023-05-06T03:42:29.391Z,33.28
2023-05-06T03:43:29.449Z,36.46
2023-05-06T03:44:29.506Z,32.39
2023-05-06T03:45:29.574Z,33.80
2023-05-06T03:46:29.689Z,33.90
2023-05-06T03:47:29.755Z,36.60
2023-05-06T03:48:29.758Z,33.33
2023-05-06T03:49:29.817Z,31.77
2023-05-06T03:50:29.869Z,34.43
2023-05-06T03:51:29.908Z,34.55
2023-05-06T03:52:29.949Z,34.75
2023-05-06T03:53:29.994Z,34.59
2023-05-06T03:54:30.019Z,33.89
2023-05-06T03:55:30.060Z,33.64
2023-05-06T03:56:30.113Z,31.97
2023-05-06T03:57:30.269Z,33.53
2023-05-06T03:58:30.216Z,33.87
2023-05-06T03:59:30.268Z,34.13
2023-05-06T04:00:30.313Z,31.70
2023-05-06T04:01:30.351Z,34.77
2023-05-06T04:02:30.458Z,33.13
2023-05-06T04:03:30.523Z,35.29
2023-05-06T04:04:30.469Z,31.98
2023-05-06T04:05:30.505Z,34.52
2023-05-06T04:06:30.530Z,31.57
2023-05-06T04:07:30.541Z,33.85
2023-05-06T04:08:30.590Z,32.78
2023-05-06T04:09:30.645Z,32.86
2023-05-06T04:10:30.687Z,34.72
2023-05-06T04:11:30.744Z,36.72
2023-05-06T04:12:30.825Z,34.09
2023-05-06T04:13:30.952Z,32.24
2023-05-06T04:14:30.913Z,34.35
2023-05-06T04:15:30.959Z,33.39
2023-05-06T04:16:31.054Z,36.78
2023-05-06T04:17:31.066Z,32.69
2023-05-06T04:18:31.079Z,32.52
2023-05-06T04:19:31.132Z,35.20
2023-05-06T04:20:31.179Z,34.38
2023-05-06T04:21:31.244Z,35.31
2023-05-06T04:22:31.290Z,33.37
2023-05-06T04:23:31.324Z,35.92
2023-05-06T04:24:32.180Z,35.75
2023-05-06T04:25:31.380Z,30.20
2023-05-06T04:26:31.434Z,30.87
2023-05-06T04:27:31.474Z,32.34
2023-05-06T04:28:31.547Z,35.06
2023-05-06T04:29:31.813Z,33.25
2023-05-06T04:30:31.658Z,34.62
2023-05-06T04:31:31.727Z,35.14
2023-05-06T04:32:31.800Z,35.89
2023-05-06T04:33:31.824Z,34.75
2023-05-06T04:34:31.896Z,36.58
2023-05-06T04:35:31.957Z,34.08
2023-05-06T04:36:32.017Z,34.70
2023-05-06T04:37:32.038Z,34.45
2023-05-06T04:38:32.166Z,35.23
2023-05-06T04:39:32.110Z,34.96
2023-05-06T04:40:32.130Z,34.02
2023-05-06T04:41:32.180Z,35.07
2023-05-06T04:42:32.255Z,35.79
2023-05-06T04:43:32.317Z,34.37
2023-05-06T04:44:32.358Z,34.18
2023-05-06T04:45:32.633Z,34.78
2023-05-06T04:46:32.472Z,35.64
2023-05-06T04:47:32.661Z,36.00
2023-05-06T04:48:32.584Z,35.22
2023-05-06T04:49:32.646Z,34.11
2023-05-06T04:50:32.691Z,32.39
2023-05-06T04:51:32.733Z,37.06
2023-05-06T04:52:32.787Z,35.17
2023-05-06T04:53:32.861Z,32.33
2023-05-06T04:54:32.920Z,35.37
2023-05-06T04:55:32.976Z,36.81
2023-05-06T04:56:33.010Z,34.82
2023-05-06T04:57:33.091Z,34.67
2023-05-06T04:58:33.076Z,33.19
2023-05-06T04:59:33.092Z,33.26
2023-05-06T05:01:32.364Z,34.80
2023-05-06T05:02:33.364Z,35.14
2023-05-06T05:03:33.414Z,33.83
2023-05-06T05:04:33.361Z,36.83
2023-05-06T05:05:33.399Z,35.37
2023-05-06T05:06:33.432Z,33.17
2023-05-06T05:07:33.468Z,33.03
2023-05-06T05:08:33.523Z,36.23
2023-05-06T05:09:33.558Z,25.00
2023-05-06T05:10:33.620Z,25.00
2023-05-06T05:11:33.668Z,25.00
2023-05-06T05:12:33.753Z,25.13
2023-05-06T05:13:33.784Z,29.16
2023-05-06T05:14:33.820Z,26.40
2023-05-06T05:15:33.847Z,26.85
2023-05-06T05:16:33.921Z,24.43
2023-05-06T05:17:34.110Z,25.00
2023-05-06T05:18:33.917Z,29.12
2023-05-06T05:19:33.929Z,25.00
2023-05-06T05:20:33.944Z,27.45
2023-05-06T05:21:33.930Z,25.00
2023-05-06T05:22:33.926Z,28.15
2023-05-06T05:23:33.940Z,28.53
2023-05-06T05:24:33.947Z,28.21
2023-05-06T05:25:33.940Z,27.62
2023-05-06T05:26:33.941Z,31.69
2023-05-06T05:27:33.953Z,27.62
2023-05-06T05:28:33.967Z,25.98
2023-05-06T05:29:33.970Z,28.97
2023-05-06T05:30:33.989Z,26.66
2023-05-06T05:31:34.015Z,28.99
2023-05-06T05:32:34.066Z,30.12
2023-05-06T05:33:34.176Z,34.17
2023-05-06T05:34:34.060Z,30.70
2023-05-06T05:35:34.087Z,32.11
2023-05-06T05:36:34.097Z,35.53
2023-05-06T05:37:34.113Z,38.97
2023-05-06T05:38:34.130Z,35.65
2023-05-06T05:39:34.149Z,38.11
2023-05-06T05:40:34.166Z,38.55
2023-05-06T05:41:34.195Z,40.72
2023-05-06T05:42:34.227Z,38.37
2023-05-06T05:43:34.238Z,41.68
2023-05-06T05:44:34.253Z,46.86
2023-05-06T05:45:34.281Z,43.13
2023-05-06T05:46:34.473Z,41.83
2023-05-06T05:47:34.345Z,42.93
2023-05-06T05:48:34.416Z,43.01
2023-05-06T05:49:34.424Z,42.94
2023-05-06T05:50:34.433Z,45.82
2023-05-06T05:51:34.438Z,47.91
2023-05-06T05:52:34.464Z,46.74
2023-05-06T05:53:34.488Z,48.22
2023-05-06T05:54:34.513Z,48.70
2023-05-06T05:55:34.531Z,51.33
2023-05-06T05:56:34.557Z,50.88
2023-05-06T05:57:34.582Z,50.67
2023-05-06T05:58:34.615Z,49.08
2023-05-06T05:59:34.634Z,52.04
2023-05-06T06:00:34.655Z,52.16
2023-05-06T06:01:34.723Z,53.81
2023-05-06T06:02:34.886Z,55.21
2023-05-06T06:03:34.773Z,54.13
2023-05-06T06:04:34.784Z,52.97
2023-05-06T06:05:34.880Z,52.17
2023-05-06T06:06:34.767Z,53.44
2023-05-06T06:07:34.823Z,52.25
2023-05-06T06:08:34.823Z,53.10
2023-05-06T06:09:34.846Z,57.11
2023-05-06T06:10:34.872Z,58.52
2023-05-06T06:11:34.891Z,59.10
2023-05-06T06:12:34.943Z,59.10
2023-05-06T06:13:34.928Z,57.49
2023-05-06T06:14:34.966Z,59.78
2023-05-06T06:15:34.976Z,59.66
2023-05-06T06:16:35.356Z,57.08
2023-05-06T06:17:35.020Z,54.49
2023-05-06T06:18:35.031Z,52.75
2023-05-06T06:19:35.043Z,54.78
2023-05-06T06:20:35.072Z,54.54
2023-05-06T06:21:35.198Z,52.52
2023-05-06T06:22:35.123Z,54.80
2023-05-06T06:23:35.127Z,55.82
2023-05-06T06:24:35.162Z,55.05
2023-05-06T06:25:35.191Z,52.43
2023-05-06T06:26:35.183Z,48.71
2023-05-06T06:27:35.192Z,53.11
2023-05-06T06:28:35.229Z,57.17
2023-05-06T06:29:35.212Z,60.69
2023-05-06T06:30:35.229Z,55.83
2023-05-06T06:31:35.294Z,55.09
2023-05-06T06:32:35.292Z,52.07
2023-05-06T06:33:35.271Z,56.48
2023-05-06T06:34:35.286Z,53.37
2023-05-06T06:35:35.308Z,56.81
2023-05-06T06:36:35.328Z,54.69
2023-05-06T06:37:35.526Z,58.33
2023-05-06T06:38:35.729Z,57.10
2023-05-06T06:39:35.398Z,56.51
2023-05-06T06:40:35.416Z,57.45
2023-05-06T06:41:35.441Z,56.11
2023-05-06T06:42:35.461Z,54.10
2023-05-06T06:43:35.480Z,52.03
2023-05-06T06:44:35.725Z,53.83
2023-05-06T06:45:35.515Z,50.57
2023-05-06T06:46:35.524Z,48.55
2023-05-06T06:47:35.554Z,47.68
2023-05-06T06:48:35.550Z,49.90
2023-05-06T06:49:35.563Z,53.39
2023-05-06T06:50:35.565Z,50.87
2023-05-06T06:51:35.576Z,54.43
2023-05-06T06:52:35.588Z,50.50
2023-05-06T06:53:35.704Z,51.04
2023-05-06T06:54:35.615Z,53.70
2023-05-06T06:55:35.680Z,55.08
2023-05-06T06:56:35.645Z,53.42
2023-05-06T06:57:35.645Z,52.87
2023-05-06T06:58:35.644Z,55.92
2023-05-06T06:59:35.652Z,55.07
2023-05-06T07:00:35.656Z,54.27
2023-05-06T07:01:35.744Z,49.30
2023-05-06T07:02:35.698Z,49.47
2023-05-06T07:03:35.699Z,46.56
2023-05-06T07:04:35.742Z,49.25
2023-05-06T07:05:35.700Z,53.73
2023-05-06T07:06:35.714Z,54.59
2023-05-06T07:07:35.715Z,56.37
2023-05-06T07:08:35.725Z,56.00
2023-05-06T07:09:36.077Z,52.46
2023-05-06T07:10:35.744Z,47.89
2023-05-06T07:11:35.750Z,50.53
2023-05-06T07:12:35.778Z,49.59
2023-05-06T07:13:35.759Z,50.38
2023-05-06T07:14:35.764Z,52.50
2023-05-06T07:15:35.772Z,52.15
2023-05-06T07:16:35.855Z,52.67
2023-05-06T07:17:35.907Z,52.28
2023-05-06T07:18:35.811Z,49.50
2023-05-06T07:19:35.820Z,53.76
2023-05-06T07:20:35.839Z,53.20
2023-05-06T07:21:35.840Z,55.95
2023-05-06T07:22:35.864Z,55.81
2023-05-06T07:23:35.869Z,56.21
2023-05-06T07:24:35.880Z,55.05
2023-05-06T07:25:35.976Z,59.38
2023-05-06T07:26:35.888Z,59.81
2023-05-06T07:27:35.897Z,59.40
2023-05-06T07:28:35.899Z,59.65
2023-05-06T07:29:36.737Z,60.46
2023-05-06T07:30:35.906Z,58.76
2023-05-06T07:31:35.974Z,59.20
2023-05-06T07:32:35.986Z,58.71
2023-05-06T07:33:35.952Z,62.33
2023-05-06T07:34:35.964Z,64.28
2023-05-06T07:35:35.944Z,61.53
2023-05-06T07:36:37.921Z,65.31
2023-05-06T07:37:35.957Z,65.48
2023-05-06T07:38:35.957Z,65.88
2023-05-06T07:39:35.957Z,66.61
2023-05-06T07:40:35.935Z,67.61
2023-05-06T07:41:36.039Z,69.35
2023-05-06T07:42:35.934Z,71.22
2023-05-06T07:43:35.946Z,71.26
2023-05-06T07:44:35.928Z,71.40
2023-05-06T07:45:35.935Z,71.92
2023-05-06T07:46:36.032Z,73.21
2023-05-06T07:47:36.032Z,72.91
2023-05-06T07:48:35.962Z,73.79
2023-05-06T07:49:35.919Z,75.43
2023-05-06T07:50:35.928Z,72.88
2023-05-06T07:51:35.919Z,70.41
2023-05-06T07:52:35.921Z,74.98
2023-05-06T07:53:35.907Z,76.38
2023-05-06T07:54:35.914Z,79.44
2023-05-06T07:55:35.907Z,82.48
2023-05-06T07:56:35.913Z,81.94
2023-05-06T07:57:36.059Z,83.04
2023-05-06T07:58:35.903Z,81.64
2023-05-06T07:59:35.894Z,84.81
2023-05-06T08:00:35.894Z,86.65
2023-05-06T08:01:35.884Z,85.84
2023-05-06T08:02:36.013Z,87.82
2023-05-06T08:03:36.184Z,90.65
2023-05-06T08:04:35.908Z,90.65
2023-05-06T08:05:35.891Z,87.22
2023-05-06T08:06:35.866Z,86.50
2023-05-06T08:07:35.867Z,84.81
2023-05-06T08:08:35.873Z,80.27
2023-05-06T08:09:35.872Z,82.44
2023-05-06T08:10:35.864Z,81.22
2023-05-06T08:11:35.866Z,83.30
2023-05-06T08:12:35.900Z,82.95
2023-05-06T08:13:35.950Z,85.75
2023-05-06T08:14:35.861Z,86.91
2023-05-06T08:15:35.860Z,87.67
2023-05-06T08:16:35.897Z,90.67
2023-05-06T08:17:35.898Z,90.17
2023-05-06T08:18:35.858Z,88.02
2023-05-06T08:19:35.850Z,87.37
2023-05-06T08:20:35.850Z,88.44
2023-05-06T08:21:35.854Z,83.50
2023-05-06T08:22:36.299Z,82.76
2023-05-06T08:23:35.994Z,81.35
2023-05-06T08:24:36.063Z,84.95
2023-05-06T08:25:36.129Z,84.72
2023-05-06T08:26:36.188Z,87.44
2023-05-06T08:27:36.260Z,89.66
2023-05-06T08:28:36.321Z,84.61
2023-05-06T08:29:36.517Z,83.80
2023-05-06T08:30:36.461Z,86.61
2023-05-06T08:31:36.568Z,83.57
2023-05-06T08:32:36.604Z,84.05
2023-05-06T08:33:36.649Z,80.40
2023-05-06T08:34:36.760Z,76.63
2023-05-06T08:35:36.827Z,73.45
2023-05-06T08:36:36.854Z,64.57
2023-05-06T08:37:36.899Z,67.84
2023-05-06T08:38:36.947Z,68.35
2023-05-06T08:39:37.025Z,61.66
2023-05-06T08:40:37.090Z,57.89
2023-05-06T08:41:37.146Z,58.19
2023-05-06T08:42:37.198Z,52.27
2023-05-06T08:43:37.261Z,62.44
2023-05-06T08:44:37.326Z,64.01
2023-05-06T08:45:37.420Z,65.75
2023-05-06T08:46:37.433Z,70.26
2023-05-06T08:47:37.529Z,71.80
2023-05-06T08:48:37.564Z,71.58
2023-05-06T08:49:37.617Z,73.06
2023-05-06T08:50:37.670Z,72.12
2023-05-06T08:51:37.727Z,70.29
2023-05-06T08:52:37.769Z,67.25
2023-05-06T08:53:37.825Z,61.25
2023-05-06T08:54:37.891Z,62.23
2023-05-06T08:55:37.958Z,65.58
2023-05-06T08:56:38.017Z,65.36
2023-05-06T08:57:38.074Z,62.92
2023-05-06T08:58:38.127Z,65.04
2023-05-06T08:59:38.191Z,58.53
2023-05-06T09:00:38.248Z,61.62
2023-05-06T09:01:38.456Z,59.12
2023-05-06T09:02:40.563Z,64.06
2023-05-06T09:03:38.515Z,64.14
2023-05-06T09:04:38.364Z,64.19
2023-05-06T09:05:38.404Z,57.90
2023-05-06T09:06:38.456Z,53.55
2023-05-06T09:07:38.554Z,43.92
2023-05-06T09:08:38.617Z,42.56
2023-05-06T09:09:38.627Z,43.97
2023-05-06T09:10:38.695Z,47.39
2023-05-06T09:11:38.782Z,47.99
2023-05-06T09:12:38.847Z,45.89
2023-05-06T09:13:38.869Z,39.61
2023-05-06T09:14:38.941Z,39.70
2023-05-06T09:15:38.986Z,39.99
2023-05-06T09:16:39.109Z,45.91
2023-05-06T09:17:39.374Z,47.28
2023-05-06T09:18:39.197Z,43.64
2023-05-06T09:19:39.254Z,40.23
2023-05-06T09:20:39.324Z,36.58
2023-05-06T09:21:39.423Z,36.80
2023-05-06T09:22:39.471Z,27.84
2023-05-06T09:23:39.545Z,31.65
2023-05-06T09:24:39.608Z,25.79
2023-05-06T09:25:39.730Z,30.19
2023-05-06T09:26:39.753Z,27.05
2023-05-06T09:27:39.837Z,25.90
2023-05-06T09:28:39.880Z,33.45
2023-05-06T09:29:39.944Z,34.97
2023-05-06T09:30:40.063Z,37.95
2023-05-06T09:31:40.090Z,34.27
2023-05-06T09:32:40.590Z,39.10
2023-05-06T09:33:40.240Z,31.99
2023-05-06T09:34:40.267Z,39.53
2023-05-06T09:35:40.316Z,39.42
2023-05-06T09:36:40.380Z,35.58
2023-05-06T09:37:40.437Z,34.79
2023-05-06T09:38:40.505Z,38.10
2023-05-06T09:39:40.581Z,37.64
2023-05-06T09:40:40.620Z,31.99
2023-05-06T09:41:40.679Z,29.74
2023-05-06T09:42:40.716Z,29.49
2023-05-06T09:43:40.792Z,35.29
2023-05-06T09:44:40.843Z,34.16
2023-05-06T09:45:40.887Z,33.42
2023-05-06T09:46:41.062Z,32.35
2023-05-06T09:47:41.101Z,34.06
2023-05-06T09:48:41.105Z,36.22
2023-05-06T09:49:41.304Z,41.56
2023-05-06T09:50:41.197Z,46.93
2023-05-06T09:51:41.254Z,40.70
2023-05-06T09:52:41.326Z,32.27
2023-05-06T09:53:41.379Z,34.00
2023-05-06T09:54:41.447Z,30.92
2023-05-06T09:55:41.509Z,37.55
2023-05-06T09:56:41.585Z,34.38
2023-05-06T09:57:41.647Z,36.76
2023-05-06T09:58:41.713Z,40.87
2023-05-06T09:59:41.788Z,46.11
2023-05-06T10:00:41.849Z,47.45
2023-05-06T10:01:41.934Z,52.27
2023-05-06T10:02:42.136Z,52.32
2023-05-06T10:03:42.276Z,56.18
2023-05-06T10:04:42.511Z,59.32
2023-05-06T10:05:42.279Z,61.88
2023-05-06T10:06:42.253Z,70.88
2023-05-06T10:07:42.313Z,71.54
2023-05-06T10:08:42.358Z,68.86
2023-05-06T10:09:42.419Z,73.77
2023-05-06T10:10:42.476Z,73.17
2023-05-06T10:11:42.537Z,68.82
2023-05-06T10:12:42.671Z,68.91
2023-05-06T10:13:42.672Z,60.33
2023-05-06T10:14:42.743Z,64.28
2023-05-06T10:15:42.849Z,64.13
2023-05-06T10:16:42.982Z,64.11
2023-05-06T10:17:43.062Z,66.29
2023-05-06T10:18:43.006Z,68.41
2023-05-06T10:19:43.085Z,68.98
2023-05-06T10:20:43.311Z,68.96
2023-05-06T10:21:43.315Z,67.35
2023-05-06T10:22:43.301Z,73.09
2023-05-06T10:23:43.327Z,75.12
2023-05-06T10:24:43.400Z,78.39
2023-05-06T10:25:43.446Z,80.06
2023-05-06T10:26:43.502Z,78.47
2023-05-06T10:27:43.564Z,77.62
2023-05-06T10:28:43.650Z,75.01
2023-05-06T10:29:43.688Z,72.49
2023-05-06T10:30:43.754Z,77.57
2023-05-06T10:31:43.839Z,76.12
2023-05-06T10:32:43.900Z,70.12
2023-05-06T10:33:43.953Z,65.78
2023-05-06T10:34:44.007Z,60.14
2023-05-06T10:35:44.078Z,59.95
2023-05-06T10:36:44.143Z,62.46
2023-05-06T10:37:44.304Z,55.90
2023-05-06T10:38:44.279Z,56.38
2023-05-06T10:39:44.336Z,59.05
2023-05-06T10:40:44.401Z,56.94
2023-05-06T10:41:44.464Z,53.83
2023-05-06T10:42:44.531Z,47.34
2023-05-06T10:43:44.587Z,49.05
2023-05-06T10:44:46.160Z,43.51
2023-05-06T10:45:44.781Z,39.83
2023-05-06T10:46:44.800Z,39.14
2023-05-06T10:47:44.859Z,43.13
2023-05-06T10:48:44.909Z,42.59
2023-05-06T10:49:44.974Z,40.25
2023-05-06T10:50:46.648Z,33.57
2023-05-06T10:51:45.009Z,32.96
2023-05-06T10:52:44.996Z,39.75
2023-05-06T10:53:45.092Z,35.59
2023-05-06T10:54:44.978Z,40.37
2023-05-06T10:55:44.972Z,47.53
2023-05-06T10:56:46.391Z,44.84
2023-05-06T10:57:44.948Z,39.09
2023-05-06T10:58:44.972Z,37.20
2023-05-06T10:59:45.010Z,38.88
2023-05-06T11:00:45.055Z,47.53
2023-05-06T11:01:45.098Z,54.68
2023-05-06T11:02:46.946Z,58.81
2023-05-06T11:03:45.161Z,66.08
2023-05-06T11:04:45.075Z,73.64
2023-05-06T11:05:45.064Z,77.25
2023-05-06T11:06:45.056Z,84.79
2023-05-06T11:07:45.043Z,87.50
2023-05-06T11:08:46.556Z,81.43
2023-05-06T11:09:45.397Z,77.05
2023-05-06T11:10:45.232Z,75.49
2023-05-06T11:11:45.257Z,76.39
2023-05-06T11:12:45.398Z,72.16
2023-05-06T11:13:45.305Z,73.52
2023-05-06T11:14:45.326Z,71.55
2023-05-06T11:15:45.338Z,73.03
2023-05-06T11:16:45.425Z,69.71
2023-05-06T11:17:45.413Z,63.30
2023-05-06T11:18:45.404Z,58.19
2023-05-06T11:19:45.432Z,63.78
2023-05-06T11:20:45.459Z,73.55
2023-05-06T11:21:45.480Z,77.63
2023-05-06T11:22:45.498Z,76.37
2023-05-06T11:23:45.523Z,74.44
2023-05-06T11:24:45.540Z,75.62
2023-05-06T11:25:45.584Z,75.58
2023-05-06T11:26:45.590Z,79.60
2023-05-06T11:27:45.607Z,79.80
2023-05-06T11:28:45.618Z,74.46
2023-05-06T11:29:45.638Z,72.25
2023-05-06T11:30:45.677Z,76.43
2023-05-06T11:31:45.676Z,82.61
2023-05-06T11:32:45.693Z,86.26
2023-05-06T11:33:45.680Z,86.54
2023-05-06T11:34:45.677Z,93.68
2023-05-06T11:35:45.676Z,93.18
2023-05-06T11:36:45.679Z,93.96
2023-05-06T11:37:45.714Z,87.31
2023-05-06T11:38:45.694Z,80.53
2023-05-06T11:39:45.675Z,79.28
2023-05-06T11:40:45.676Z,74.96
2023-05-06T11:41:45.770Z,71.76
2023-05-06T11:42:45.688Z,73.42
2023-05-06T11:43:45.687Z,61.04
2023-05-06T11:44:45.671Z,63.85
2023-05-06T11:45:45.669Z,58.15
2023-05-06T11:46:45.748Z,45.49
2023-05-06T11:47:45.780Z,45.91
2023-05-06T11:48:45.654Z,44.65
2023-05-06T11:49:45.658Z,39.33
2023-05-06T11:50:45.649Z,32.45
2023-05-06T11:51:45.646Z,27.64
2023-05-06T11:52:45.653Z,35.14
2023-05-06T11:53:45.646Z,39.45
2023-05-06T11:54:45.645Z,45.99
2023-05-06T11:55:45.627Z,41.20
2023-05-06T11:56:45.632Z,43.61
2023-05-06T11:57:45.726Z,45.60
2023-05-06T11:58:45.613Z,52.96
2023-05-06T11:59:45.608Z,59.60
2023-05-06T12:00:45.598Z,62.83
2023-05-06T12:01:45.580Z,58.59
2023-05-06T12:02:45.634Z,58.69
2023-05-06T12:03:45.739Z,54.66
2023-05-06T12:04:45.643Z,46.82
2023-05-06T12:05:45.573Z,50.30
2023-05-06T12:06:45.563Z,45.54
2023-05-06T12:07:45.584Z,53.23
2023-05-06T12:08:45.551Z,52.74
2023-05-06T12:09:45.575Z,49.55
2023-05-06T12:10:45.566Z,39.57
2023-05-06T12:11:45.565Z,30.80
2023-05-06T12:12:45.609Z,25.17
2023-05-06T12:13:45.671Z,30.05
2023-05-06T12:14:45.566Z,39.44
2023-05-06T12:15:45.564Z,34.30
2023-05-06T12:16:45.591Z,30.68
2023-05-06T12:17:45.582Z,42.89
2023-05-06T12:18:45.595Z,60.80
2023-05-06T12:19:45.626Z,77.19
2023-05-06T12:20:45.650Z,87.52
2023-05-06T12:21:45.702Z,91.70
2023-05-06T12:22:45.748Z,93.11
2023-05-06T12:23:45.825Z,91.88
2023-05-06T12:24:45.860Z,91.11
2023-05-06T12:25:45.919Z,90.28
2023-05-06T12:26:45.979Z,89.38
2023-05-06T12:27:46.011Z,87.99
2023-05-06T12:28:46.070Z,87.50
2023-05-06T12:29:46.208Z,90.47
2023-05-06T12:30:46.164Z,89.25
2023-05-06T12:31:46.241Z,86.88
2023-05-06T12:32:46.322Z,87.88
2023-05-06T12:33:46.407Z,86.86
2023-05-06T12:34:46.364Z,81.51
2023-05-06T12:35:46.418Z,83.54
2023-05-06T12:36:46.463Z,83.08
2023-05-06T12:37:46.527Z,84.57
2023-05-06T12:38:46.554Z,84.52
2023-05-06T12:39:46.631Z,83.56
2023-05-06T12:40:46.649Z,79.23
2023-05-06T12:41:46.692Z,83.42
2023-05-06T12:42:46.736Z,83.23
2023-05-06T12:43:46.783Z,79.81
2023-05-06T12:44:46.829Z,76.90
2023-05-06T12:45:47.030Z,75.79
2023-05-06T12:46:46.906Z,71.56
2023-05-06T12:47:46.956Z,70.49
2023-05-06T12:48:46.999Z,68.75
2023-05-06T12:49:47.047Z,71.54
2023-05-06T12:50:47.081Z,67.54
2023-05-06T12:51:47.806Z,68.87
2023-05-06T12:52:47.171Z,72.10
2023-05-06T12:53:47.196Z,65.35